METAR Data
IDs: Format: Raw Decoded Include TAF

Data at: 1347 UTC 14 Dec 2019

KBTV 141341Z 31009KT 1/2SM R15/1600V2200FT -RA FG SCT009 BKN045 OVC065 04/03 A2960 RMK AO2 VIS 1/2V1 P0004 T00440033
KBTV 141320Z 33008KT 1SM R15/P6000FT -RA BR FEW009 SCT033 OVC041 04/03 A2961 RMK AO2 VIS 1V4 P0003 T00440033
KBTV 141307Z 32008KT 1/2SM R15/3500VP6000FT -RA FG OVC035 04/03 A2962 RMK AO2 VIS 1/4V2 P0001 T00440028
KBTV 141257Z 32005KT 1SM R15/2800VP6000FT -RA BR OVC035 04/03 A2963 RMK AO2 VIS 1V4 P0000 T00440028
KBTV 141254Z 33006KT 6SM R15/3500VP6000FT -RA BR OVC035 04/03 A2963 RMK AO2 PRESFR SLP035 P0003 T00440028
KBTV 141154Z 15004KT 10SM -RA OVC065 07/04 A2968 RMK AO2 SLP054 VCFG P0004 60007 70009 T00670044 10067 20028 58057
KBTV 141054Z 00000KT 9SM -RA BKN065 OVC080 04/03 A2975 RMK AO2 SLP076 VCFG P0001 T00390028
KBTV 140954Z AUTO 33003KT 10SM -RA OVC090 03/02 A2980 RMK AO2 PRESFR SLP094 P0000 T00330022
KBTV 140854Z AUTO 00000KT 8SM R15/3000VP6000FT -RA OVC055 03/02 A2985 RMK AO2 RAB00 SLP113 P0001 60002 T00330022 58050
KBTV 140754Z AUTO 00000KT 5SM R15/2800VP6000FT BR FEW047 OVC060 03/02 A2992 RMK AO2 SLP135 T00330022
KBTV 140747Z AUTO 00000KT 2SM BR OVC049 03/02 A2993 RMK AO2 T00280022
KBTV 140654Z AUTO 16004KT 7SM FEW017 OVC036 04/03 A2996 RMK AO2 RAB10E19B34E45 SLP149 P0001 T00390028
KBTV 140643Z AUTO 15004KT 4SM -RA BR FEW017 OVC032 03/02 A2997 RMK AO2 RAB10E19B34 P0001 T00280022
KBTV 140621Z AUTO 00000KT 5SM BR FEW018 OVC028 04/03 A2999 RMK AO2 RAB10E19 P0000 T00390028
KBTV 140554Z AUTO 18005KT 10SM OVC032 04/02 A3000 RMK AO2 SLP163 60002 T00390022 10039 20022 56035
KBTV 140454Z 19003KT 10SM OVC039 03/02 A3004 RMK AO2 RAE48 SLP175 LAST P0000 T00280017 400441022
KBTV 140354Z AUTO 14003KT 10SM -RA FEW014 BKN050 OVC090 03/02 A3008 RMK AO2 SLP188 P0000 T00280017
KBTV 140333Z 15004KT 10SM -RA FEW012 SCT032 OVC090 03/01 A3009 RMK AO2 P0000 T00280011
KBTV 140304Z 16004KT 10SM -RA BKN012 BKN016 OVC050 03/02 A3010 RMK AO2 P0000 T00280017
KBTV 140254Z 13004KT 10SM -RA SCT012 BKN017 OVC060 03/01 A3011 RMK AO2 SLP199 P0001 60002 T00280011 56029
KBTV 140240Z 12006KT 10SM -RA SCT009 BKN014 OVC065 03/01 A3011 RMK AO2 P0001 T00280011
KBTV 140214Z 11006KT 10SM -RA BKN009 BKN025 OVC047 02/01 A3013 RMK AO2 P0001 T00220006
KBTV 140154Z 14004KT 9SM -RA OVC010 02/01 A3014 RMK AO2 SLP211 P0001 T00220006
KBTV 140054Z 11006KT 10SM -RA OVC010 02/00 A3016 RMK AO2 DZB09E30RAB30 SLP216 INTMT SHRA P0000 T00220000
KBTV 132354Z 14004KT 10SM BKN013 OVC018 02/00 A3020 RMK AO2 RAE53 SLP229 P0000 60000 T00220000 10044 20022 55009
KBTV 132352Z 13004KT 10SM -RA BKN013 OVC020 02/00 A3019 RMK AO2 P0000
KBTV 132254Z 15006KT 10SM -RA OVC025 02/M01 A3021 RMK AO2 RAB39 SLP232 INTMT SHRA P0000 T00221006
KBTV 132220Z 14005KT 10SM BKN023 BKN028 OVC055 02/M02 A3022 RMK AO2 T00221017
KBTV 132154Z 18007KT 10SM FEW032 BKN045 OVC055 03/M02 A3022 RMK AO2 SLP239 T00281017
KBTV 132054Z 18008KT 10SM SCT040 BKN060 BKN200 03/M02 A3024 RMK AO2 SLP244 T00281022 56018
KBTV 131954Z 19012G18KT 10SM FEW023 OVC041 03/M02 A3026 RMK AO2 SLP252 T00331022
KBTV 131854Z 20009KT 10SM BKN025 BKN042 04/M03 A3026 RMK AO2 SLP252 T00391033
KBTV 131830Z 19009G17KT 10SM BKN025 BKN042 04/M03 A3027 RMK AO2 T00441033
KBTV 131754Z 19012G21KT 10SM SCT040 BKN050 BKN180 04/M03 A3029 RMK AO2 PK WND 19026/1712 SLP262 T00391033 10044 21011 58022
KBTV 131554Z 19012G26KT 10SM SCT044 SCT120 BKN200 03/M05 A3035 RMK AO2 PK WND 18026/1547 SLP282 T00281050
KBTV 131454Z 19014G22KT 10SM FEW060 FEW120 SCT200 02/M07 A3036 RMK AO2 SLP286 T00171072 58005
KBTV 131354Z 18016G22KT 10SM FEW055 FEW120 SCT200 01/M09 A3037 RMK AO2 PK WND 19027/1302 SLP290 T00061094
KBTV 131254Z 18014G24KT 10SM FEW050 FEW120 SCT200 M01/M11 A3037 RMK AO2 PK WND 19029/1229 SLP289 ACC W-N T10061111
KBTV 131154Z 18012G20KT 10SM FEW120 FEW200 M01/M12 A3037 RMK AO2 SLP291 T10111117 11011 21017 55010
KBTV 131054Z 19019G26KT 10SM SCT200 M01/M12 A3037 RMK AO2 PK WND 19029/1002 SLP290 T10111122
KBTV 130954Z AUTO 19019G30KT 10SM CLR M01/M12 A3039 RMK AO2 PK WND 20030/0949 SLP295 T10111122
KBTV 130854Z AUTO 18016G23KT 10SM OVC110 M01/M13 A3041 RMK AO2 PK WND 19033/0759 SLP301 T10111133 58017
KBTV 130754Z AUTO 18016G26KT 10SM OVC100 M01/M13 A3042 RMK AO2 PK WND 19028/0744 SLP307 T10111128
KBTV 130654Z AUTO 18015G31KT 10SM OVC100 M01/M13 A3045 RMK AO2 PK WND 18031/0648 SLP316 T10111128
KBTV 130554Z AUTO 18014G24KT 10SM OVC100 M02/M12 A3046 RMK AO2 SLP318 T10171122 11017 21033 58025
KBTV 130454Z 17011KT 10SM BKN120 M02/M12 A3049 RMK AO2 SLP328 LAST T10221117 410171061
KBTV 130354Z 17011G18KT 10SM OVC095 M03/M12 A3051 RMK AO2 SLP337 T10281117
KBTV 130254Z 17013KT 10SM OVC095 M03/M11 A3053 RMK AO2 SLP344 T10281111 58019
KBTV 130154Z 18009KT 10SM SCT080 OVC095 M03/M11 A3057 RMK AO2 SLP356 T10281111